sensor_id;sensor_type;location;lat;lon;timestamp;P1;durP1;ratioP1;P2;durP2;ratioP2
20855;SDS011;63058;49.424;8.420;2023-04-24T00:00:00;2.00;;;0.80;;
20855;SDS011;63058;49.424;8.420;2023-04-24T00:02:36;1.35;;;0.88;;
20855;SDS011;63058;49.424;8.420;2023-04-24T00:05:06;1.00;;;0.70;;
20855;SDS011;63058;49.424;8.420;2023-04-24T00:07:33;4.07;;;0.93;;
20855;SDS011;63058;49.424;8.420;2023-04-24T00:09:59;1.33;;;0.90;;
20855;SDS011;63058;49.424;8.420;2023-04-24T00:12:25;1.30;;;0.90;;
20855;SDS011;63058;49.424;8.420;2023-04-24T00:14:51;1.55;;;1.02;;
20855;SDS011;63058;49.424;8.420;2023-04-24T00:17:17;2.83;;;0.80;;
20855;SDS011;63058;49.424;8.420;2023-04-24T00:19:46;1.55;;;0.90;;
20855;SDS011;63058;49.424;8.420;2023-04-24T00:22:14;2.22;;;1.17;;
20855;SDS011;63058;49.424;8.420;2023-04-24T00:24:40;4.30;;;1.10;;
20855;SDS011;63058;49.424;8.420;2023-04-24T00:27:05;1.13;;;0.90;;
20855;SDS011;63058;49.424;8.420;2023-04-24T00:29:31;1.92;;;0.80;;
20855;SDS011;63058;49.424;8.420;2023-04-24T00:31:57;1.10;;;0.70;;
20855;SDS011;63058;49.424;8.420;2023-04-24T00:34:22;2.10;;;0.80;;
20855;SDS011;63058;49.424;8.420;2023-04-24T00:36:48;1.42;;;0.80;;
20855;SDS011;63058;49.424;8.420;2023-04-24T00:39:17;2.58;;;1.00;;
20855;SDS011;63058;49.424;8.420;2023-04-24T00:41:46;2.13;;;0.90;;
20855;SDS011;63058;49.424;8.420;2023-04-24T00:44:13;1.60;;;0.70;;
20855;SDS011;63058;49.424;8.420;2023-04-24T00:46:39;1.23;;;0.70;;
20855;SDS011;63058;49.424;8.420;2023-04-24T00:49:05;1.95;;;0.80;;
20855;SDS011;63058;49.424;8.420;2023-04-24T00:51:31;1.45;;;0.80;;
20855;SDS011;63058;49.424;8.420;2023-04-24T00:53:57;1.48;;;0.80;;
20855;SDS011;63058;49.424;8.420;2023-04-24T00:56:24;1.65;;;0.90;;
20855;SDS011;63058;49.424;8.420;2023-04-24T00:58:49;1.33;;;1.00;;
20855;SDS011;63058;49.424;8.420;2023-04-24T01:01:15;1.33;;;0.73;;
20855;SDS011;63058;49.424;8.420;2023-04-24T01:03:42;4.10;;;1.10;;
20855;SDS011;63058;49.424;8.420;2023-04-24T01:06:07;1.60;;;1.20;;
20855;SDS011;63058;49.424;8.420;2023-04-24T01:08:35;2.35;;;0.98;;
20855;SDS011;63058;49.424;8.420;2023-04-24T01:11:01;2.15;;;0.82;;
20855;SDS011;63058;49.424;8.420;2023-04-24T01:13:28;1.55;;;0.82;;
20855;SDS011;63058;49.424;8.420;2023-04-24T01:15:54;2.30;;;0.80;;
20855;SDS011;63058;49.424;8.420;2023-04-24T01:18:20;1.63;;;0.70;;
20855;SDS011;63058;49.424;8.420;2023-04-24T01:20:46;0.90;;;0.68;;
20855;SDS011;63058;49.424;8.420;2023-04-24T01:23:14;0.70;;;0.70;;
20855;SDS011;63058;49.424;8.420;2023-04-24T01:25:41;1.38;;;0.85;;
20855;SDS011;63058;49.424;8.420;2023-04-24T05:28:48;4.55;;;2.97;;
20855;SDS011;63058;49.424;8.420;2023-04-24T05:31:17;3.47;;;3.10;;
20855;SDS011;63058;49.424;8.420;2023-04-24T05:33:43;3.17;;;2.88;;
20855;SDS011;63058;49.424;8.420;2023-04-24T05:36:14;4.78;;;2.85;;
20855;SDS011;63058;49.424;8.420;2023-04-24T05:39:02;4.22;;;2.92;;
20855;SDS011;63058;49.424;8.420;2023-04-24T05:41:30;4.78;;;3.42;;
20855;SDS011;63058;49.424;8.420;2023-04-24T05:44:05;5.25;;;3.03;;
20855;SDS011;63058;49.424;8.420;2023-04-24T05:46:30;4.00;;;3.15;;
20855;SDS011;63058;49.424;8.420;2023-04-24T05:48:56;3.20;;;2.90;;
20855;SDS011;63058;49.424;8.420;2023-04-24T05:51:22;2.95;;;2.40;;
20855;SDS011;63058;49.424;8.420;2023-04-24T05:53:48;4.50;;;2.88;;
20855;SDS011;63058;49.424;8.420;2023-04-24T05:56:16;3.00;;;2.70;;
20855;SDS011;63058;49.424;8.420;2023-04-24T05:58:42;7.15;;;2.80;;
20855;SDS011;63058;49.424;8.420;2023-04-24T06:01:08;3.15;;;2.47;;
20855;SDS011;63058;49.424;8.420;2023-04-24T06:03:34;3.72;;;2.65;;
20855;SDS011;63058;49.424;8.420;2023-04-24T06:06:00;3.38;;;2.20;;
20855;SDS011;63058;49.424;8.420;2023-04-24T06:08:25;3.67;;;2.45;;
20855;SDS011;63058;49.424;8.420;2023-04-24T06:10:51;5.43;;;2.50;;
20855;SDS011;63058;49.424;8.420;2023-04-24T06:13:17;4.18;;;2.40;;
20855;SDS011;63058;49.424;8.420;2023-04-24T06:15:43;3.92;;;2.97;;
20855;SDS011;63058;49.424;8.420;2023-04-24T06:18:09;3.55;;;2.70;;
20855;SDS011;63058;49.424;8.420;2023-04-24T06:20:37;2.80;;;2.47;;
20855;SDS011;63058;49.424;8.420;2023-04-24T06:23:03;3.72;;;2.97;;
20855;SDS011;63058;49.424;8.420;2023-04-24T06:25:29;3.15;;;2.15;;
20855;SDS011;63058;49.424;8.420;2023-04-24T06:27:55;3.47;;;2.20;;
20855;SDS011;63058;49.424;8.420;2023-04-24T06:30:21;2.65;;;2.10;;
20855;SDS011;63058;49.424;8.420;2023-04-24T06:32:47;3.15;;;1.80;;
20855;SDS011;63058;49.424;8.420;2023-04-24T06:35:13;2.40;;;1.70;;
20855;SDS011;63058;49.424;8.420;2023-04-24T06:37:39;1.73;;;1.52;;
20855;SDS011;63058;49.424;8.420;2023-04-24T06:40:06;3.80;;;1.65;;
20855;SDS011;63058;49.424;8.420;2023-04-24T06:42:33;1.60;;;1.40;;
20855;SDS011;63058;49.424;8.420;2023-04-24T06:44:59;2.00;;;1.33;;
20855;SDS011;63058;49.424;8.420;2023-04-24T06:47:25;1.42;;;1.10;;
20855;SDS011;63058;49.424;8.420;2023-04-24T06:49:51;2.13;;;1.10;;
20855;SDS011;63058;49.424;8.420;2023-04-24T06:52:17;1.67;;;1.00;;
20855;SDS011;63058;49.424;8.420;2023-04-24T06:54:43;1.67;;;0.98;;
20855;SDS011;63058;49.424;8.420;2023-04-24T06:57:09;1.58;;;1.08;;
20855;SDS011;63058;49.424;8.420;2023-04-24T06:59:38;2.63;;;1.45;;
20855;SDS011;63058;49.424;8.420;2023-04-24T07:02:04;1.50;;;1.10;;
20855;SDS011;63058;49.424;8.420;2023-04-24T07:04:32;1.75;;;1.20;;
20855;SDS011;63058;49.424;8.420;2023-04-24T07:06:58;1.17;;;0.90;;
20855;SDS011;63058;49.424;8.420;2023-04-24T07:09:24;1.23;;;0.95;;
20855;SDS011;63058;49.424;8.420;2023-04-24T07:11:54;1.38;;;1.17;;
20855;SDS011;63058;49.424;8.420;2023-04-24T07:14:21;1.30;;;1.00;;
20855;SDS011;63058;49.424;8.420;2023-04-24T07:16:47;1.45;;;0.95;;
20855;SDS011;63058;49.424;8.420;2023-04-24T07:19:12;2.78;;;1.50;;
20855;SDS011;63058;49.424;8.420;2023-04-24T07:21:39;1.45;;;1.10;;
20855;SDS011;63058;49.424;8.420;2023-04-24T07:24:05;2.95;;;1.40;;
20855;SDS011;63058;49.424;8.420;2023-04-24T07:26:34;1.60;;;1.27;;
20855;SDS011;63058;49.424;8.420;2023-04-24T07:29:00;2.03;;;1.60;;
20855;SDS011;63058;49.424;8.420;2023-04-24T07:31:29;1.85;;;1.60;;
20855;SDS011;63058;49.424;8.420;2023-04-24T07:33:55;2.13;;;1.60;;
20855;SDS011;63058;49.424;8.420;2023-04-24T07:36:23;2.03;;;1.80;;
20855;SDS011;63058;49.424;8.420;2023-04-24T07:38:49;2.75;;;1.95;;
20855;SDS011;63058;49.424;8.420;2023-04-24T07:41:15;2.58;;;1.80;;
20855;SDS011;63058;49.424;8.420;2023-04-24T07:43:50;3.40;;;2.00;;
20855;SDS011;63058;49.424;8.420;2023-04-24T07:46:16;2.97;;;1.90;;
20855;SDS011;63058;49.424;8.420;2023-04-24T07:48:45;2.10;;;1.90;;
20855;SDS011;63058;49.424;8.420;2023-04-24T07:51:16;3.10;;;1.90;;
20855;SDS011;63058;49.424;8.420;2023-04-24T07:53:51;2.08;;;1.88;;
20855;SDS011;63058;49.424;8.420;2023-04-24T07:56:22;3.42;;;1.98;;
20855;SDS011;63058;49.424;8.420;2023-04-24T07:58:56;2.65;;;1.92;;
20855;SDS011;63058;49.424;8.420;2023-04-24T08:01:37;2.65;;;1.75;;
20855;SDS011;63058;49.424;8.420;2023-04-24T08:04:09;1.95;;;1.70;;
20855;SDS011;63058;49.424;8.420;2023-04-24T08:06:41;2.42;;;1.60;;
20855;SDS011;63058;49.424;8.420;2023-04-24T08:09:06;3.75;;;1.90;;
20855;SDS011;63058;49.424;8.420;2023-04-24T08:11:35;1.75;;;1.63;;
20855;SDS011;63058;49.424;8.420;2023-04-24T08:16:40;1.50;;;1.40;;
20855;SDS011;63058;49.424;8.420;2023-04-24T08:19:15;2.45;;;1.70;;
20855;SDS011;63058;49.424;8.420;2023-04-24T08:21:41;2.53;;;1.75;;
20855;SDS011;63058;49.424;8.420;2023-04-24T08:24:06;1.45;;;1.35;;
20855;SDS011;63058;49.424;8.420;2023-04-24T08:26:32;2.80;;;1.55;;
20855;SDS011;63058;49.424;8.420;2023-04-24T08:28:58;2.40;;;1.83;;
20855;SDS011;63058;49.424;8.420;2023-04-24T08:31:27;2.38;;;1.70;;
20855;SDS011;63058;49.424;8.420;2023-04-24T08:33:53;3.03;;;1.40;;
20855;SDS011;63058;49.424;8.420;2023-04-24T08:36:18;3.80;;;1.67;;
20855;SDS011;63058;49.424;8.420;2023-04-24T08:38:44;2.20;;;1.73;;
20855;SDS011;63058;49.424;8.420;2023-04-24T08:41:11;2.28;;;1.67;;
20855;SDS011;63058;49.424;8.420;2023-04-24T08:43:40;3.00;;;1.60;;
20855;SDS011;63058;49.424;8.420;2023-04-24T08:46:07;1.38;;;1.15;;
20855;SDS011;63058;49.424;8.420;2023-04-24T08:48:33;4.38;;;1.58;;
20855;SDS011;63058;49.424;8.420;2023-04-24T08:50:59;2.75;;;1.60;;
20855;SDS011;63058;49.424;8.420;2023-04-24T08:53:27;1.40;;;1.25;;
20855;SDS011;63058;49.424;8.420;2023-04-24T08:55:54;1.98;;;1.42;;
20855;SDS011;63058;49.424;8.420;2023-04-24T08:58:21;2.40;;;1.50;;
20855;SDS011;63058;49.424;8.420;2023-04-24T09:00:51;3.00;;;1.30;;
20855;SDS011;63058;49.424;8.420;2023-04-24T09:03:19;1.60;;;1.42;;
20855;SDS011;63058;49.424;8.420;2023-04-24T09:05:50;2.53;;;1.58;;
20855;SDS011;63058;49.424;8.420;2023-04-24T09:08:20;2.40;;;1.65;;
20855;SDS011;63058;49.424;8.420;2023-04-24T09:13:50;1.45;;;1.23;;
20855;SDS011;63058;49.424;8.420;2023-04-24T09:16:16;2.03;;;1.42;;
20855;SDS011;63058;49.424;8.420;2023-04-24T09:18:42;4.05;;;1.50;;
20855;SDS011;63058;49.424;8.420;2023-04-24T09:21:08;2.55;;;1.30;;
20855;SDS011;63058;49.424;8.420;2023-04-24T09:23:35;2.10;;;1.55;;
20855;SDS011;63058;49.424;8.420;2023-04-24T09:26:02;1.35;;;1.25;;
20855;SDS011;63058;49.424;8.420;2023-04-24T09:28:42;4.65;;;1.70;;
20855;SDS011;63058;49.424;8.420;2023-04-24T09:31:15;3.47;;;2.35;;
20855;SDS011;63058;49.424;8.420;2023-04-24T09:33:57;2.45;;;2.05;;
20855;SDS011;63058;49.424;8.420;2023-04-24T09:36:32;2.00;;;1.80;;
20855;SDS011;63058;49.424;8.420;2023-04-24T09:39:42;2.53;;;2.00;;
20855;SDS011;63058;49.424;8.420;2023-04-24T09:42:13;2.85;;;2.00;;
20855;SDS011;63058;49.424;8.420;2023-04-24T09:44:42;2.75;;;2.40;;
20855;SDS011;63058;49.424;8.420;2023-04-24T09:47:10;3.65;;;2.42;;
20855;SDS011;63058;49.424;8.420;2023-04-24T09:49:38;3.20;;;2.53;;
20855;SDS011;63058;49.424;8.420;2023-04-24T10:05:51;3.47;;;1.70;;
20855;SDS011;63058;49.424;8.420;2023-04-24T10:16:40;1.50;;;1.40;;
20855;SDS011;63058;49.424;8.420;2023-04-24T10:22:14;1.63;;;1.20;;
20855;SDS011;63058;49.424;8.420;2023-04-24T10:24:42;1.98;;;1.27;;
20855;SDS011;63058;49.424;8.420;2023-04-24T10:27:10;2.33;;;1.50;;
20855;SDS011;63058;49.424;8.420;2023-04-24T10:29:46;1.92;;;1.30;;
20855;SDS011;63058;49.424;8.420;2023-04-24T10:32:19;1.83;;;1.10;;
20855;SDS011;63058;49.424;8.420;2023-04-24T10:34:45;5.28;;;1.30;;
20855;SDS011;63058;49.424;8.420;2023-04-24T10:37:13;1.98;;;1.30;;
20855;SDS011;63058;49.424;8.420;2023-04-24T10:39:40;1.50;;;1.17;;
20855;SDS011;63058;49.424;8.420;2023-04-24T10:42:21;1.90;;;1.50;;
20855;SDS011;63058;49.424;8.420;2023-04-24T10:44:50;2.55;;;1.30;;
20855;SDS011;63058;49.424;8.420;2023-04-24T10:47:23;2.22;;;1.70;;
20855;SDS011;63058;49.424;8.420;2023-04-24T10:49:53;4.75;;;2.00;;
20855;SDS011;63058;49.424;8.420;2023-04-24T10:52:50;1.88;;;1.50;;
20855;SDS011;63058;49.424;8.420;2023-04-24T11:01:44;2.78;;;1.60;;
20855;SDS011;63058;49.424;8.420;2023-04-24T11:05:10;1.55;;;1.35;;
20855;SDS011;63058;49.424;8.420;2023-04-24T11:07:16;2.17;;;1.70;;
20855;SDS011;63058;49.424;8.420;2023-04-24T11:09:46;2.65;;;1.75;;
20855;SDS011;63058;49.424;8.420;2023-04-24T11:15:11;4.00;;;2.08;;
20855;SDS011;63058;49.424;8.420;2023-04-24T11:20:25;3.00;;;2.30;;
20855;SDS011;63058;49.424;8.420;2023-04-24T11:22:54;3.15;;;2.10;;
20855;SDS011;63058;49.424;8.420;2023-04-24T11:25:23;3.15;;;1.95;;
20855;SDS011;63058;49.424;8.420;2023-04-24T11:28:14;2.63;;;1.92;;
20855;SDS011;63058;49.424;8.420;2023-04-24T11:34:05;3.83;;;2.38;;
20855;SDS011;63058;49.424;8.420;2023-04-24T11:36:43;3.13;;;2.42;;
20855;SDS011;63058;49.424;8.420;2023-04-24T11:39:13;2.95;;;2.58;;
20855;SDS011;63058;49.424;8.420;2023-04-24T11:42:02;3.38;;;2.90;;
20855;SDS011;63058;49.424;8.420;2023-04-24T11:44:28;4.78;;;2.85;;
20855;SDS011;63058;49.424;8.420;2023-04-24T11:46:55;3.83;;;2.53;;
20855;SDS011;63058;49.424;8.420;2023-04-24T11:49:21;4.57;;;3.15;;
20855;SDS011;63058;49.424;8.420;2023-04-24T11:51:47;6.00;;;3.25;;
20855;SDS011;63058;49.424;8.420;2023-04-24T11:54:12;3.35;;;2.58;;
20855;SDS011;63058;49.424;8.420;2023-04-24T11:56:38;3.38;;;2.38;;
20855;SDS011;63058;49.424;8.420;2023-04-24T11:59:04;4.18;;;2.42;;
20855;SDS011;63058;49.424;8.420;2023-04-24T12:01:29;3.17;;;2.40;;
20855;SDS011;63058;49.424;8.420;2023-04-24T12:04:07;2.30;;;2.10;;
20855;SDS011;63058;49.424;8.420;2023-04-24T12:06:32;3.92;;;2.42;;
20855;SDS011;63058;49.424;8.420;2023-04-24T12:08:58;4.80;;;2.47;;
20855;SDS011;63058;49.424;8.420;2023-04-24T12:11:24;3.35;;;2.22;;
20855;SDS011;63058;49.424;8.420;2023-04-24T12:13:50;3.70;;;2.63;;
20855;SDS011;63058;49.424;8.420;2023-04-24T12:16:16;4.25;;;2.67;;
20855;SDS011;63058;49.424;8.420;2023-04-24T12:18:42;3.70;;;2.85;;
20855;SDS011;63058;49.424;8.420;2023-04-24T12:21:19;3.88;;;2.75;;
20855;SDS011;63058;49.424;8.420;2023-04-24T12:23:46;3.35;;;2.78;;
20855;SDS011;63058;49.424;8.420;2023-04-24T12:26:14;3.35;;;2.40;;
20855;SDS011;63058;49.424;8.420;2023-04-24T12:28:42;4.63;;;2.67;;
20855;SDS011;63058;49.424;8.420;2023-04-24T12:31:11;3.97;;;2.33;;
20855;SDS011;63058;49.424;8.420;2023-04-24T12:33:36;4.13;;;2.50;;
20855;SDS011;63058;49.424;8.420;2023-04-24T12:36:03;4.18;;;2.83;;
20855;SDS011;63058;49.424;8.420;2023-04-24T12:38:30;4.50;;;2.90;;
20855;SDS011;63058;49.424;8.420;2023-04-24T12:41:03;4.05;;;2.63;;
20855;SDS011;63058;49.424;8.420;2023-04-24T12:43:37;4.97;;;2.78;;
20855;SDS011;63058;49.424;8.420;2023-04-24T12:46:03;3.15;;;2.10;;
20855;SDS011;63058;49.424;8.420;2023-04-24T12:48:29;3.17;;;2.45;;
20855;SDS011;63058;49.424;8.420;2023-04-24T12:50:59;2.78;;;2.30;;
20855;SDS011;63058;49.424;8.420;2023-04-24T12:53:28;5.05;;;2.50;;
20855;SDS011;63058;49.424;8.420;2023-04-24T12:55:56;2.42;;;2.20;;
20855;SDS011;63058;49.424;8.420;2023-04-24T12:58:22;4.28;;;2.65;;
20855;SDS011;63058;49.424;8.420;2023-04-24T13:00:48;4.57;;;2.33;;
20855;SDS011;63058;49.424;8.420;2023-04-24T13:03:13;5.30;;;2.50;;
20855;SDS011;63058;49.424;8.420;2023-04-24T13:05:39;5.43;;;2.53;;
20855;SDS011;63058;49.424;8.420;2023-04-24T13:08:06;2.67;;;2.22;;
20855;SDS011;63058;49.424;8.420;2023-04-24T13:10:31;3.13;;;2.20;;
20855;SDS011;63058;49.424;8.420;2023-04-24T13:12:57;3.63;;;2.10;;
20855;SDS011;63058;49.424;8.420;2023-04-24T13:15:23;5.03;;;2.38;;
20855;SDS011;63058;49.424;8.420;2023-04-24T13:17:49;3.08;;;2.38;;
20855;SDS011;63058;49.424;8.420;2023-04-24T13:20:15;3.50;;;2.25;;
20855;SDS011;63058;49.424;8.420;2023-04-24T13:22:42;2.38;;;2.10;;
20855;SDS011;63058;49.424;8.420;2023-04-24T13:25:08;2.60;;;2.40;;
20855;SDS011;63058;49.424;8.420;2023-04-24T13:27:35;3.65;;;2.25;;
20855;SDS011;63058;49.424;8.420;2023-04-24T13:30:00;4.20;;;2.25;;
20855;SDS011;63058;49.424;8.420;2023-04-24T13:32:26;2.97;;;2.10;;
20855;SDS011;63058;49.424;8.420;2023-04-24T13:34:53;3.83;;;2.10;;
20855;SDS011;63058;49.424;8.420;2023-04-24T13:37:18;3.55;;;2.08;;
20855;SDS011;63058;49.424;8.420;2023-04-24T13:39:44;3.63;;;2.10;;
20855;SDS011;63058;49.424;8.420;2023-04-24T13:42:09;2.50;;;1.85;;
20855;SDS011;63058;49.424;8.420;2023-04-24T13:44:35;3.35;;;2.10;;
20855;SDS011;63058;49.424;8.420;2023-04-24T13:47:01;2.78;;;2.00;;
20855;SDS011;63058;49.424;8.420;2023-04-24T13:49:27;5.15;;;2.25;;
20855;SDS011;63058;49.424;8.420;2023-04-24T13:51:53;2.45;;;1.80;;
20855;SDS011;63058;49.424;8.420;2023-04-24T13:54:20;5.70;;;1.73;;
20855;SDS011;63058;49.424;8.420;2023-04-24T13:56:48;3.85;;;2.08;;
20855;SDS011;63058;49.424;8.420;2023-04-24T13:59:14;1.90;;;1.70;;
20855;SDS011;63058;49.424;8.420;2023-04-24T14:01:39;3.75;;;1.75;;
20855;SDS011;63058;49.424;8.420;2023-04-24T14:04:05;2.70;;;1.85;;
20855;SDS011;63058;49.424;8.420;2023-04-24T14:06:31;3.13;;;1.83;;
20855;SDS011;63058;49.424;8.420;2023-04-24T14:08:57;3.35;;;2.25;;
20855;SDS011;63058;49.424;8.420;2023-04-24T14:11:22;2.25;;;1.95;;
20855;SDS011;63058;49.424;8.420;2023-04-24T14:13:48;5.18;;;2.10;;
20855;SDS011;63058;49.424;8.420;2023-04-24T14:16:14;2.75;;;2.05;;
20855;SDS011;63058;49.424;8.420;2023-04-24T14:18:40;3.03;;;2.30;;
20855;SDS011;63058;49.424;8.420;2023-04-24T14:21:05;3.30;;;2.03;;
20855;SDS011;63058;49.424;8.420;2023-04-24T14:23:31;3.85;;;2.30;;
20855;SDS011;63058;49.424;8.420;2023-04-24T14:25:58;3.17;;;1.70;;
20855;SDS011;63058;49.424;8.420;2023-04-24T14:28:24;2.85;;;2.50;;
20855;SDS011;63058;49.424;8.420;2023-04-24T14:30:52;4.38;;;2.85;;
20855;SDS011;63058;49.424;8.420;2023-04-24T14:33:18;5.32;;;3.10;;
20855;SDS011;63058;49.424;8.420;2023-04-24T14:35:44;3.05;;;2.60;;
20855;SDS011;63058;49.424;8.420;2023-04-24T14:38:10;4.22;;;3.00;;
20855;SDS011;63058;49.424;8.420;2023-04-24T14:40:36;2.85;;;2.50;;
20855;SDS011;63058;49.424;8.420;2023-04-24T14:43:02;3.88;;;3.47;;
20855;SDS011;63058;49.424;8.420;2023-04-24T14:45:28;3.60;;;3.00;;
20855;SDS011;63058;49.424;8.420;2023-04-24T14:47:54;2.50;;;2.30;;
20855;SDS011;63058;49.424;8.420;2023-04-24T14:50:21;2.45;;;2.00;;
20855;SDS011;63058;49.424;8.420;2023-04-24T14:52:46;2.83;;;2.00;;
20855;SDS011;63058;49.424;8.420;2023-04-24T14:55:12;2.72;;;1.95;;
20855;SDS011;63058;49.424;8.420;2023-04-24T14:57:39;1.98;;;1.73;;
20855;SDS011;63058;49.424;8.420;2023-04-24T15:00:05;3.33;;;2.40;;
20855;SDS011;63058;49.424;8.420;2023-04-24T15:02:33;3.67;;;2.47;;
20855;SDS011;63058;49.424;8.420;2023-04-24T15:05:01;2.70;;;2.50;;
20855;SDS011;63058;49.424;8.420;2023-04-24T15:07:27;2.92;;;2.42;;
20855;SDS011;63058;49.424;8.420;2023-04-24T15:09:53;3.08;;;2.30;;
20855;SDS011;63058;49.424;8.420;2023-04-24T15:12:19;3.45;;;2.40;;
20855;SDS011;63058;49.424;8.420;2023-04-24T15:14:45;3.13;;;2.47;;
20855;SDS011;63058;49.424;8.420;2023-04-24T15:17:10;4.43;;;2.70;;
20855;SDS011;63058;49.424;8.420;2023-04-24T15:19:36;3.25;;;2.63;;
20855;SDS011;63058;49.424;8.420;2023-04-24T15:22:01;4.20;;;2.50;;
20855;SDS011;63058;49.424;8.420;2023-04-24T15:24:27;5.38;;;3.85;;
20855;SDS011;63058;49.424;8.420;2023-04-24T15:26:53;4.15;;;3.08;;
20855;SDS011;63058;49.424;8.420;2023-04-24T15:29:18;5.55;;;3.25;;
20855;SDS011;63058;49.424;8.420;2023-04-24T15:31:44;3.15;;;2.10;;
20855;SDS011;63058;49.424;8.420;2023-04-24T15:34:10;4.05;;;2.65;;
20855;SDS011;63058;49.424;8.420;2023-04-24T15:36:35;3.35;;;2.05;;
20855;SDS011;63058;49.424;8.420;2023-04-24T15:39:02;4.03;;;2.67;;
20855;SDS011;63058;49.424;8.420;2023-04-24T15:41:27;3.58;;;2.50;;
20855;SDS011;63058;49.424;8.420;2023-04-24T15:43:53;5.25;;;2.78;;
20855;SDS011;63058;49.424;8.420;2023-04-24T15:46:18;3.15;;;2.67;;
20855;SDS011;63058;49.424;8.420;2023-04-24T15:48:44;3.25;;;2.45;;
20855;SDS011;63058;49.424;8.420;2023-04-24T15:51:10;4.70;;;2.75;;
20855;SDS011;63058;49.424;8.420;2023-04-24T15:53:35;3.15;;;2.58;;
20855;SDS011;63058;49.424;8.420;2023-04-24T15:56:01;2.45;;;2.20;;
20855;SDS011;63058;49.424;8.420;2023-04-24T15:58:27;2.10;;;1.90;;
20855;SDS011;63058;49.424;8.420;2023-04-24T16:00:53;3.72;;;2.17;;
20855;SDS011;63058;49.424;8.420;2023-04-24T16:03:19;3.60;;;2.40;;
20855;SDS011;63058;49.424;8.420;2023-04-24T16:05:45;2.50;;;2.00;;
20855;SDS011;63058;49.424;8.420;2023-04-24T16:08:11;2.83;;;2.03;;
20855;SDS011;63058;49.424;8.420;2023-04-24T16:10:38;1.92;;;1.50;;
20855;SDS011;63058;49.424;8.420;2023-04-24T16:13:03;1.95;;;1.48;;
20855;SDS011;63058;49.424;8.420;2023-04-24T16:15:29;1.92;;;1.73;;
20855;SDS011;63058;49.424;8.420;2023-04-24T16:17:55;3.00;;;1.92;;
20855;SDS011;63058;49.424;8.420;2023-04-24T16:20:21;5.90;;;2.03;;
20855;SDS011;63058;49.424;8.420;2023-04-24T16:22:46;2.05;;;1.55;;
20855;SDS011;63058;49.424;8.420;2023-04-24T16:25:12;2.95;;;1.65;;
20855;SDS011;63058;49.424;8.420;2023-04-24T16:27:38;1.88;;;1.42;;
20855;SDS011;63058;49.424;8.420;2023-04-24T16:30:03;1.95;;;1.60;;
20855;SDS011;63058;49.424;8.420;2023-04-24T16:32:29;3.33;;;1.70;;
20855;SDS011;63058;49.424;8.420;2023-04-24T16:34:55;1.20;;;1.10;;
20855;SDS011;63058;49.424;8.420;2023-04-24T16:37:21;1.90;;;1.27;;
20855;SDS011;63058;49.424;8.420;2023-04-24T16:39:46;1.52;;;1.38;;
20855;SDS011;63058;49.424;8.420;2023-04-24T16:42:12;1.63;;;1.25;;
20855;SDS011;63058;49.424;8.420;2023-04-24T16:44:39;2.33;;;1.10;;
20855;SDS011;63058;49.424;8.420;2023-04-24T16:47:06;2.75;;;1.25;;
20855;SDS011;63058;49.424;8.420;2023-04-24T16:49:32;1.58;;;1.10;;
20855;SDS011;63058;49.424;8.420;2023-04-24T16:51:58;3.00;;;1.52;;
20855;SDS011;63058;49.424;8.420;2023-04-24T16:54:24;2.25;;;1.40;;
20855;SDS011;63058;49.424;8.420;2023-04-24T16:56:52;1.50;;;1.10;;
20855;SDS011;63058;49.424;8.420;2023-04-24T16:59:18;3.15;;;1.63;;
20855;SDS011;63058;49.424;8.420;2023-04-24T17:01:44;2.03;;;1.33;;
20855;SDS011;63058;49.424;8.420;2023-04-24T17:04:11;1.73;;;1.35;;
20855;SDS011;63058;49.424;8.420;2023-04-24T17:06:36;2.00;;;1.08;;
20855;SDS011;63058;49.424;8.420;2023-04-24T17:09:02;2.58;;;1.20;;
20855;SDS011;63058;49.424;8.420;2023-04-24T17:11:28;1.90;;;1.40;;
20855;SDS011;63058;49.424;8.420;2023-04-24T17:13:54;3.65;;;2.00;;
20855;SDS011;63058;49.424;8.420;2023-04-24T17:16:20;2.50;;;1.60;;
20855;SDS011;63058;49.424;8.420;2023-04-24T17:18:46;2.05;;;1.50;;
20855;SDS011;63058;49.424;8.420;2023-04-24T17:21:11;1.50;;;1.20;;
20855;SDS011;63058;49.424;8.420;2023-04-24T17:23:37;1.92;;;1.30;;
20855;SDS011;63058;49.424;8.420;2023-04-24T17:26:02;3.50;;;1.35;;
20855;SDS011;63058;49.424;8.420;2023-04-24T17:28:29;2.13;;;1.30;;
20855;SDS011;63058;49.424;8.420;2023-04-24T17:30:56;2.30;;;1.40;;
20855;SDS011;63058;49.424;8.420;2023-04-24T17:33:23;1.92;;;1.70;;
20855;SDS011;63058;49.424;8.420;2023-04-24T17:35:49;2.92;;;1.48;;
20855;SDS011;63058;49.424;8.420;2023-04-24T17:38:15;2.53;;;1.73;;
20855;SDS011;63058;49.424;8.420;2023-04-24T17:40:41;2.95;;;1.83;;
20855;SDS011;63058;49.424;8.420;2023-04-24T17:43:07;3.17;;;2.03;;
20855;SDS011;63058;49.424;8.420;2023-04-24T17:45:32;3.17;;;1.90;;
20855;SDS011;63058;49.424;8.420;2023-04-24T17:47:58;3.80;;;1.80;;
20855;SDS011;63058;49.424;8.420;2023-04-24T17:50:24;1.60;;;1.50;;
20855;SDS011;63058;49.424;8.420;2023-04-24T17:52:49;1.83;;;1.38;;
20855;SDS011;63058;49.424;8.420;2023-04-24T17:55:15;1.48;;;1.27;;
20855;SDS011;63058;49.424;8.420;2023-04-24T17:57:41;1.60;;;1.23;;
20855;SDS011;63058;49.424;8.420;2023-04-24T18:00:06;2.25;;;1.30;;
20855;SDS011;63058;49.424;8.420;2023-04-24T18:02:33;2.55;;;1.33;;
20855;SDS011;63058;49.424;8.420;2023-04-24T18:05:00;3.13;;;1.50;;
20855;SDS011;63058;49.424;8.420;2023-04-24T18:07:26;2.55;;;1.20;;
20855;SDS011;63058;49.424;8.420;2023-04-24T18:09:51;1.00;;;0.90;;
20855;SDS011;63058;49.424;8.420;2023-04-24T18:12:17;1.30;;;1.15;;
20855;SDS011;63058;49.424;8.420;2023-04-24T18:14:42;2.90;;;1.35;;
20855;SDS011;63058;49.424;8.420;2023-04-24T18:17:08;1.75;;;1.38;;
20855;SDS011;63058;49.424;8.420;2023-04-24T18:19:34;1.50;;;1.38;;
20855;SDS011;63058;49.424;8.420;2023-04-24T18:21:59;2.20;;;1.38;;
20855;SDS011;63058;49.424;8.420;2023-04-24T18:24:25;1.92;;;1.70;;
20855;SDS011;63058;49.424;8.420;2023-04-24T18:26:51;3.05;;;1.50;;
20855;SDS011;63058;49.424;8.420;2023-04-24T18:29:16;3.15;;;1.52;;
20855;SDS011;63058;49.424;8.420;2023-04-24T18:31:42;1.20;;;1.10;;
20855;SDS011;63058;49.424;8.420;2023-04-24T18:34:08;1.40;;;1.27;;
20855;SDS011;63058;49.424;8.420;2023-04-24T18:36:33;1.23;;;1.13;;
20855;SDS011;63058;49.424;8.420;2023-04-24T18:38:59;2.05;;;1.30;;
20855;SDS011;63058;49.424;8.420;2023-04-24T18:41:24;1.30;;;1.05;;
20855;SDS011;63058;49.424;8.420;2023-04-24T18:43:50;1.40;;;1.00;;
20855;SDS011;63058;49.424;8.420;2023-04-24T18:46:16;1.67;;;1.27;;
20855;SDS011;63058;49.424;8.420;2023-04-24T18:48:42;1.30;;;1.20;;
20855;SDS011;63058;49.424;8.420;2023-04-24T18:51:08;1.75;;;1.40;;
20855;SDS011;63058;49.424;8.420;2023-04-24T18:53:34;2.00;;;1.60;;
20855;SDS011;63058;49.424;8.420;2023-04-24T18:56:00;2.10;;;1.45;;
20855;SDS011;63058;49.424;8.420;2023-04-24T18:58:25;2.08;;;1.30;;
20855;SDS011;63058;49.424;8.420;2023-04-24T19:00:51;1.52;;;1.10;;
20855;SDS011;63058;49.424;8.420;2023-04-24T19:03:17;2.20;;;1.38;;
20855;SDS011;63058;49.424;8.420;2023-04-24T19:05:43;1.55;;;1.30;;
20855;SDS011;63058;49.424;8.420;2023-04-24T19:08:09;2.28;;;1.42;;
20855;SDS011;63058;49.424;8.420;2023-04-24T19:10:35;1.50;;;1.40;;
20855;SDS011;63058;49.424;8.420;2023-04-24T19:13:01;1.40;;;1.15;;
20855;SDS011;63058;49.424;8.420;2023-04-24T19:15:26;1.58;;;1.23;;
20855;SDS011;63058;49.424;8.420;2023-04-24T19:17:53;1.85;;;1.27;;
20855;SDS011;63058;49.424;8.420;2023-04-24T19:20:19;2.67;;;1.10;;
20855;SDS011;63058;49.424;8.420;2023-04-24T19:22:46;1.33;;;1.23;;
20855;SDS011;63058;49.424;8.420;2023-04-24T19:25:11;2.35;;;1.50;;
20855;SDS011;63058;49.424;8.420;2023-04-24T19:27:38;3.88;;;1.30;;
20855;SDS011;63058;49.424;8.420;2023-04-24T19:30:04;1.98;;;1.40;;
20855;SDS011;63058;49.424;8.420;2023-04-24T19:32:30;1.27;;;1.17;;
20855;SDS011;63058;49.424;8.420;2023-04-24T19:34:56;1.73;;;1.20;;